Weather reports worldwide

Advertisment
Lus-La-Croix-Haute, France (7587): temperature & dewpoint: 11.10.2018 08:00:00 - 17.10.2018 08:00:00 (CEST)Lus-La-Croix-Haute, France (7587): wind speed & gusts: 11.10.2018 08:00:00 - 17.10.2018 08:00:00 (CEST)Lus-La-Croix-Haute, France (7587): wind direction: 11.10.2018 08:00:00 - 17.10.2018 08:00:00 (CEST)Lus-La-Croix-Haute, France (7587): precipitation: 11.10.2018 08:00:00 - 17.10.2018 08:00:00 (CEST)
Date & Time tt [°C] td [°C] ff [km/h] ff [kn] fx [km/h] fx [kn] dd rr [mm]
17.10.2018 08:00:00 - - - - - - - -
17.10.2018 07:00:00 6,7 5,6 4 2 8 4 N 0,0
17.10.2018 06:00:00 7,0 5,9 0 0 8 4 N 0,0
17.10.2018 05:00:00 7,5 6,6 0 0 5 3 N 0,0
17.10.2018 04:00:00 7,6 6,4 0 0 8 4 N 0,0
17.10.2018 03:00:00 8,4 6,9 4 2 8 4 N 0,0
17.10.2018 02:00:00 9,2 6,3 2 1 9 5 N -
17.10.2018 01:00:00 9,9 7,0 5 3 9 5 NE 0,0
17.10.2018 00:00:00 11,1 8,1 2 1 5 3 SE 0,0
16.10.2018 23:00:00 11,5 7,6 4 2 9 5 E 0,0
16.10.2018 22:00:00 12,1 7,4 2 1 5 3 NE 0,0
16.10.2018 21:00:00 12,7 6,9 2 1 9 5 N 0,0
16.10.2018 20:00:00 12,8 7,2 2 1 11 6 N -
16.10.2018 19:00:00 13,7 7,2 8 4 18 10 NNW 0,0
16.10.2018 18:00:00 14,4 7,7 15 8 28 15 NW 0,0
16.10.2018 17:00:00 16,5 6,9 11 6 18 10 WNW 0,0
16.10.2018 16:00:00 16,8 5,7 0 0 11 6 N 0,0
16.10.2018 15:00:00 17,1 5,7 4 2 9 5 S 0,0
16.10.2018 14:00:00 16,5 5,7 4 2 11 6 NW -
16.10.2018 13:00:00 16,4 5,4 5 3 13 7 WNW 0,0
16.10.2018 12:00:00 15,7 5,0 4 2 9 5 E 0,0
16.10.2018 11:00:00 13,2 6,3 0 0 5 3 N 0,0
16.10.2018 10:00:00 11,6 6,5 0 0 8 4 N 0,0
16.10.2018 09:00:00 10,1 6,2 2 1 8 4 W 0,0
16.10.2018 08:00:00 9,9 5,1 2 1 8 4 WSW -
16.10.2018 07:00:00 10,6 4,9 4 2 8 4 N 0,0
16.10.2018 06:00:00 11,1 4,8 0 0 8 4 N 0,0
16.10.2018 05:00:00 11,7 4,9 2 1 13 7 ESE 0,0
16.10.2018 04:00:00 12,2 4,4 5 3 11 6 N 0,0
16.10.2018 03:00:00 12,2 3,7 4 2 9 5 NNW 0,0
16.10.2018 02:00:00 12,4 3,9 5 3 11 6 N -
16.10.2018 01:00:00 12,5 3,4 5 3 22 12 N 0,0
16.10.2018 00:00:00 12,9 3,0 9 5 24 13 SSE 0,0
15.10.2018 23:00:00 14,1 2,3 8 4 28 15 S 0,0
15.10.2018 22:00:00 14,5 2,1 16 9 34 18 S 0,0
15.10.2018 21:00:00 12,3 3,0 5 3 15 8 NE 0,0
15.10.2018 20:00:00 12,6 5,0 5 3 21 11 SE -
15.10.2018 19:00:00 14,2 3,3 4 2 46 25 ESE 0,0
15.10.2018 18:00:00 15,6 2,4 18 10 42 23 SSE 0,0
15.10.2018 17:00:00 16,1 2,1 18 10 46 25 SSE 0,0
15.10.2018 16:00:00 17,0 1,8 16 9 41 22 SSE 0,0
15.10.2018 15:00:00 17,4 1,8 18 10 54 29 SSE 0,0
15.10.2018 14:00:00 17,2 1,6 24 13 48 26 SSE -
15.10.2018 13:00:00 17,3 2,1 21 11 52 28 S 0,0
15.10.2018 12:00:00 16,4 2,4 16 9 41 22 SSE 0,0
15.10.2018 11:00:00 16,1 1,8 18 10 46 25 SSE 0,0
15.10.2018 10:00:00 15,1 1,6 16 9 50 27 S 0,0
15.10.2018 09:00:00 14,0 1,3 18 10 44 24 SSE 0,0
15.10.2018 08:00:00 13,2 0,6 21 11 46 25 S -
15.10.2018 07:00:00 13,1 0,8 18 10 42 23 S 0,0
15.10.2018 06:00:00 12,8 0,8 18 10 41 22 S 0,0
15.10.2018 05:00:00 13,2 0,9 22 12 44 24 S 0,0
15.10.2018 04:00:00 12,9 1,2 16 9 46 25 S 0,0
15.10.2018 03:00:00 13,6 1,6 16 9 52 28 SSE 0,0
15.10.2018 02:00:00 14,2 1,1 18 10 41 22 S -
15.10.2018 01:00:00 14,6 1,8 24 13 44 24 S 0,0
15.10.2018 00:00:00 14,4 2,6 24 13 50 27 S 0,0
14.10.2018 23:00:00 14,5 3,0 24 13 50 27 S 0,0
14.10.2018 22:00:00 14,3 4,0 21 11 44 24 S 0,0
14.10.2018 21:00:00 14,3 4,6 18 10 35 19 SSW 0,0
14.10.2018 20:00:00 14,4 4,7 13 7 35 19 S -
14.10.2018 19:00:00 15,1 4,2 15 8 34 18 S 0,0
14.10.2018 18:00:00 15,7 4,4 15 8 42 23 SSE 0,0
14.10.2018 17:00:00 17,3 3,9 21 11 59 32 SSE 0,0
14.10.2018 16:00:00 17,7 4,3 26 14 55 30 SSE 0,0
14.10.2018 15:00:00 18,2 4,0 24 13 63 34 SSE 0,0
14.10.2018 14:00:00 17,6 6,1 16 9 52 28 S -
14.10.2018 13:00:00 15,9 7,1 21 11 48 26 S 0,0
14.10.2018 12:00:00 14,2 6,5 22 12 42 23 SSW 0,0
14.10.2018 11:00:00 13,5 6,8 21 11 46 25 SSW 0,0
14.10.2018 10:00:00 12,9 6,9 24 13 44 24 SSW 0,0
14.10.2018 09:00:00 12,6 6,6 18 10 42 23 SSW 0,0
14.10.2018 08:00:00 12,0 6,5 18 10 41 22 SSW -
14.10.2018 07:00:00 11,9 6,8 22 12 39 21 SSW 0,0
14.10.2018 06:00:00 12,1 7,4 16 9 41 22 SSW 0,0
14.10.2018 05:00:00 12,1 8,0 18 10 41 22 SSW 0,0
14.10.2018 04:00:00 11,9 8,4 22 12 41 22 SSW 0,0
14.10.2018 03:00:00 12,2 8,7 16 9 37 20 SSW 0,0
14.10.2018 02:00:00 12,3 8,6 11 6 35 19 SSW -
14.10.2018 01:00:00 12,5 8,6 13 7 31 17 SSW 0,0
14.10.2018 00:00:00 12,8 8,7 13 7 28 15 SSW 0,0
13.10.2018 23:00:00 12,3 8,6 5 3 18 10 SSE 0,0
13.10.2018 22:00:00 13,5 9,0 4 2 24 13 S 0,0
13.10.2018 21:00:00 14,0 9,4 8 4 34 18 SSW 0,0
13.10.2018 20:00:00 15,3 9,6 15 8 28 15 S -
13.10.2018 19:00:00 16,5 9,2 16 9 29 16 S 0,0
13.10.2018 18:00:00 18,6 8,3 15 8 46 25 S 0,0
13.10.2018 17:00:00 19,8 8,5 18 10 50 27 S 0,0
13.10.2018 16:00:00 20,6 8,2 15 8 41 22 SSW 0,0
13.10.2018 15:00:00 20,6 8,6 15 8 39 21 SSW 0,0
13.10.2018 14:00:00 20,1 8,7 16 9 37 20 SSW -
13.10.2018 13:00:00 19,5 9,7 18 10 37 20 S 0,0
13.10.2018 12:00:00 18,1 9,4 16 9 29 16 SSW 0,0
13.10.2018 11:00:00 12,8 11,0 4 2 15 8 ESE 0,0
13.10.2018 10:00:00 8,6 8,6 0 0 5 3 N 0,0
13.10.2018 09:00:00 5,1 5,0 0 0 4 2 N 0,0
13.10.2018 08:00:00 5,1 5,0 0 0 5 3 N -
13.10.2018 07:00:00 5,3 5,2 0 0 5 3 N 0,0
13.10.2018 06:00:00 5,6 5,3 0 0 5 3 N 0,0
13.10.2018 05:00:00 6,1 6,0 0 0 5 3 N 0,0
13.10.2018 04:00:00 6,8 6,7 4 2 8 4 N 0,0
13.10.2018 03:00:00 6,4 6,0 0 0 4 2 N 0,0
13.10.2018 02:00:00 7,2 6,8 0 0 4 2 N -
13.10.2018 01:00:00 7,6 7,0 2 1 5 3 SE 0,0
13.10.2018 00:00:00 8,2 7,8 0 0 4 2 N 0,0
12.10.2018 23:00:00 8,8 8,2 0 0 4 2 N 0,0
12.10.2018 22:00:00 9,5 8,6 0 0 4 2 N 0,0
12.10.2018 21:00:00 10,7 9,0 0 0 5 3 N 0,0
12.10.2018 20:00:00 11,5 9,2 4 2 8 4 SE -
12.10.2018 19:00:00 14,6 9,8 4 2 18 10 N 0,0
12.10.2018 18:00:00 18,2 9,5 9 5 24 13 SSW 0,0
12.10.2018 17:00:00 18,9 9,7 13 7 28 15 SSW 0,0
12.10.2018 16:00:00 18,3 8,8 15 8 31 17 SSW 0,0
12.10.2018 15:00:00 20,0 10,1 15 8 31 17 SSW 0,0
12.10.2018 14:00:00 18,5 10,6 16 9 34 18 SSW -
12.10.2018 13:00:00 18,3 11,1 16 9 37 20 SSW 0,0
12.10.2018 12:00:00 17,4 10,5 15 8 31 17 SSW 0,0
12.10.2018 11:00:00 14,1 10,5 4 2 8 4 E 0,0
12.10.2018 10:00:00 9,4 9,3 2 1 5 3 WSW 0,0
12.10.2018 09:00:00 6,9 6,8 0 0 4 2 N 0,0
12.10.2018 08:00:00 6,5 6,1 0 0 4 2 N -
12.10.2018 07:00:00 7,3 6,7 0 0 5 3 N 0,0
12.10.2018 06:00:00 7,9 7,1 2 1 5 3 SSW 0,0
12.10.2018 05:00:00 8,9 8,0 2 1 9 5 E 0,0
12.10.2018 04:00:00 10,2 9,1 2 1 13 7 SE 0,0
12.10.2018 03:00:00 10,4 9,0 5 3 11 6 N 0,0
12.10.2018 02:00:00 11,8 9,9 - - - - - -
12.10.2018 01:00:00 12,3 10,4 8 4 16 9 ESE 0,0
12.10.2018 00:00:00 12,4 10,6 5 3 16 9 S 0,0
11.10.2018 23:00:00 12,2 10,3 4 2 16 9 S 0,0
11.10.2018 22:00:00 13,4 10,7 4 2 22 12 S 0,0
11.10.2018 21:00:00 14,2 11,0 11 6 22 12 SSW 0,0
11.10.2018 20:00:00 14,2 11,2 13 7 28 15 SSW -
11.10.2018 19:00:00 14,3 10,9 15 8 31 17 S 0,0
11.10.2018 18:00:00 14,1 11,8 11 6 29 16 S 0,2
11.10.2018 17:00:00 15,3 11,7 16 9 35 19 S 0,0
11.10.2018 16:00:00 16,5 9,4 15 8 37 20 S 0,0
11.10.2018 15:00:00 16,5 8,9 18 10 37 20 SSE 0,0
11.10.2018 14:00:00 16,5 9,4 18 10 39 21 S -
11.10.2018 13:00:00 15,8 8,3 24 13 46 25 SSE 0,0
11.10.2018 12:00:00 15,8 8,3 26 14 48 26 S 0,0
11.10.2018 11:00:00 15,8 8,5 16 9 29 16 S 0,0
11.10.2018 10:00:00 12,8 10,5 4 2 9 5 NNW 0,0
11.10.2018 09:00:00 11,1 9,8 4 2 18 10 NE 0,0
11.10.2018 08:00:00 10,7 9,1 2 1 16 9 S -

tt = temperature
td = dewpoint
ff = wind speed
fx = gusts
dd = wind direction
rr = precipitation

Next stations